sensor_id;sensor_type;location;lat;lon;timestamp;pressure;altitude;pressure_sealevel;temperature;humidity
50652;BME280;66928;52.086;5.240;2023-02-28T06:25:44;103066.00000000001;;;3.45;76.8
50652;BME280;66928;52.086;5.240;2023-02-28T06:27:21;103065.00000000001;;;3.39;77.13
50652;BME280;66928;52.086;5.240;2023-02-28T06:28:57;103068.0;;;3.37;77.11
50652;BME280;66928;52.086;5.240;2023-02-28T06:32:09;103066.00000000001;;;3.31;77.45
50652;BME280;66928;52.086;5.240;2023-02-28T06:33:46;103058.0;;;3.26;77.83
50652;BME280;66928;52.086;5.240;2023-02-28T06:35:22;103063.00000000001;;;3.4;77.7
50652;BME280;66928;52.086;5.240;2023-02-28T06:38:36;103068.0;;;3.41;77.45
50652;BME280;66928;52.086;5.240;2023-02-28T06:40:14;103069.0;;;3.25;78.08
50652;BME280;66928;52.086;5.240;2023-02-28T06:41:51;103067.0;;;3.22;78.44
50652;BME280;66928;52.086;5.240;2023-02-28T06:45:06;103069.0;;;3.21;78.37
50652;BME280;66928;52.086;5.240;2023-02-28T06:46:44;103068.0;;;3.36;78.08
50652;BME280;66928;52.086;5.240;2023-02-28T06:48:20;103067.0;;;3.27;78.44
50652;BME280;66928;52.086;5.240;2023-02-28T06:49:57;103070.0;;;3.13;78.89
50652;BME280;66928;52.086;5.240;2023-02-28T06:53:09;103077.0;;;3.13;79.23
50652;BME280;66928;52.086;5.240;2023-02-28T06:54:45;103072.0;;;3.1;79.36
50652;BME280;66928;52.086;5.240;2023-02-28T06:56:21;103074.0;;;2.99;80.08
50652;BME280;66928;52.086;5.240;2023-02-28T06:59:35;103075.0;;;3.03;80.14
50652;BME280;66928;52.086;5.240;2023-02-28T07:01:11;103074.0;;;3.08;80.03
50652;BME280;66928;52.086;5.240;2023-02-28T07:02:49;103069.0;;;3.29;79.47
50652;BME280;66928;52.086;5.240;2023-02-28T07:04:25;103068.0;;;3.27;79.49
50652;BME280;66928;52.086;5.240;2023-02-28T07:07:38;103071.0;;;3.31;79.44
50652;BME280;66928;52.086;5.240;2023-02-28T07:09:15;103068.0;;;3.25;79.61
50652;BME280;66928;52.086;5.240;2023-02-28T07:10:52;103067.0;;;3.18;80.17
50652;BME280;66928;52.086;5.240;2023-02-28T07:14:05;103072.0;;;3.15;80.34
50652;BME280;66928;52.086;5.240;2023-02-28T07:15:41;103074.0;;;3.19;80.59
50652;BME280;66928;52.086;5.240;2023-02-28T07:17:17;103083.0;;;2.9;81.39
50652;BME280;66928;52.086;5.240;2023-02-28T07:20:30;103082.0;;;3.04;81.66
50652;BME280;66928;52.086;5.240;2023-02-28T07:22:07;103083.0;;;3.12;81.58
50652;BME280;66928;52.086;5.240;2023-02-28T07:23:44;103083.99999999999;;;3.04;81.33
50652;BME280;66928;52.086;5.240;2023-02-28T07:25:20;103079.0;;;3.09;81.24
50652;BME280;66928;52.086;5.240;2023-02-28T07:28:33;103080.0;;;2.92;81.88
50652;BME280;66928;52.086;5.240;2023-02-28T07:30:10;103077.0;;;3.02;81.75
50652;BME280;66928;52.086;5.240;2023-02-28T07:31:46;103074.0;;;3.14;81.09
50652;BME280;66928;52.086;5.240;2023-02-28T07:34:59;103084.99999999999;;;3.17;80.97
50652;BME280;66928;52.086;5.240;2023-02-28T07:36:35;103089.00000000001;;;3.07;81.11
50652;BME280;66928;52.086;5.240;2023-02-28T07:38:11;103083.0;;;3.19;80.92
50652;BME280;66928;52.086;5.240;2023-02-28T07:41:23;103084.99999999999;;;3.17;81.08
50652;BME280;66928;52.086;5.240;2023-02-28T07:43:00;103077.0;;;3.21;81.08
50652;BME280;66928;52.086;5.240;2023-02-28T07:44:36;103078.0;;;3.38;80.7
50652;BME280;66928;52.086;5.240;2023-02-28T07:47:52;103083.0;;;3.52;80.44
50652;BME280;66928;52.086;5.240;2023-02-28T07:49:29;103084.99999999999;;;3.65;79.83
50652;BME280;66928;52.086;5.240;2023-02-28T07:51:05;103089.00000000001;;;3.56;79.63
50652;BME280;66928;52.086;5.240;2023-02-28T07:52:41;103090.00000000001;;;3.53;79.81
50652;BME280;66928;52.086;5.240;2023-02-28T07:55:55;103094.0;;;3.45;79.88
50652;BME280;66928;52.086;5.240;2023-02-28T07:57:32;103096.0;;;3.41;80.36
50652;BME280;66928;52.086;5.240;2023-02-28T07:59:07;103097.0;;;3.52;80.16
50652;BME280;66928;52.086;5.240;2023-02-28T08:02:20;103092.0;;;3.66;79.92
50652;BME280;66928;52.086;5.240;2023-02-28T08:03:56;103093.0;;;3.63;79.36
50652;BME280;66928;52.086;5.240;2023-02-28T08:05:32;103106.0;;;3.39;79.94
50652;BME280;66928;52.086;5.240;2023-02-28T08:08:45;103105.0;;;3.7;79.69
50652;BME280;66928;52.086;5.240;2023-02-28T08:10:21;103084.99999999999;;;3.89;79.08
50652;BME280;66928;52.086;5.240;2023-02-28T08:11:57;103091.00000000001;;;3.95;78.3
50652;BME280;66928;52.086;5.240;2023-02-28T08:13:33;103093.0;;;4.0;78.22
50652;BME280;66928;52.086;5.240;2023-02-28T08:16:46;103102.0;;;3.87;78.61
50652;BME280;66928;52.086;5.240;2023-02-28T08:18:23;103111.99999999999;;;3.69;78.86
50652;BME280;66928;52.086;5.240;2023-02-28T08:20:00;103109.99999999999;;;3.79;78.8
50652;BME280;66928;52.086;5.240;2023-02-28T08:23:12;103115.00000000001;;;3.68;79.08
50652;BME280;66928;52.086;5.240;2023-02-28T08:24:49;103113.00000000001;;;3.79;78.83
50652;BME280;66928;52.086;5.240;2023-02-28T08:26:26;103120.0;;;3.67;78.66
50652;BME280;66928;52.086;5.240;2023-02-28T08:29:38;103121.0;;;3.62;78.77
50652;BME280;66928;52.086;5.240;2023-02-28T08:31:16;103118.0;;;3.98;78.24
50652;BME280;66928;52.086;5.240;2023-02-28T08:32:53;103121.0;;;3.81;78.25
50652;BME280;66928;52.086;5.240;2023-02-28T08:34:29;103115.00000000001;;;3.91;78.13
50652;BME280;66928;52.086;5.240;2023-02-28T08:37:43;103108.99999999999;;;4.03;77.17
50652;BME280;66928;52.086;5.240;2023-02-28T08:39:20;103115.00000000001;;;4.03;77.0
50652;BME280;66928;52.086;5.240;2023-02-28T08:40:57;103108.99999999999;;;4.01;76.41
50652;BME280;66928;52.086;5.240;2023-02-28T08:44:12;103113.00000000001;;;4.0;76.17
50652;BME280;66928;52.086;5.240;2023-02-28T08:45:51;103117.0;;;3.94;75.61
50652;BME280;66928;52.086;5.240;2023-02-28T08:47:27;103118.0;;;3.8;75.45
50652;BME280;66928;52.086;5.240;2023-02-28T08:49:03;103115.00000000001;;;3.94;75.27
50652;BME280;66928;52.086;5.240;2023-02-28T08:52:16;103111.99999999999;;;3.94;75.47
50652;BME280;66928;52.086;5.240;2023-02-28T08:53:53;103119.0;;;3.94;73.97
50652;BME280;66928;52.086;5.240;2023-02-28T08:55:30;103117.0;;;3.88;74.06
50652;BME280;66928;52.086;5.240;2023-02-28T08:58:43;103114.00000000001;;;4.2;72.8
50652;BME280;66928;52.086;5.240;2023-02-28T09:00:21;103113.00000000001;;;4.12;72.44
50652;BME280;66928;52.086;5.240;2023-02-28T09:01:57;103107.0;;;4.13;70.64
50652;BME280;66928;52.086;5.240;2023-02-28T09:05:10;103099.0;;;4.03;71.09
50652;BME280;66928;52.086;5.240;2023-02-28T09:06:46;103107.0;;;3.85;70.52
50652;BME280;66928;52.086;5.240;2023-02-28T09:08:23;103113.00000000001;;;3.89;70.33
50652;BME280;66928;52.086;5.240;2023-02-28T09:09:59;103120.0;;;3.98;69.88
50652;BME280;66928;52.086;5.240;2023-02-28T09:13:12;103119.0;;;4.07;69.77
50652;BME280;66928;52.086;5.240;2023-02-28T09:14:49;103118.0;;;4.18;69.16
50652;BME280;66928;52.086;5.240;2023-02-28T09:16:25;103126.0;;;4.18;68.53
50652;BME280;66928;52.086;5.240;2023-02-28T09:19:37;103120.0;;;4.16;67.02
50652;BME280;66928;52.086;5.240;2023-02-28T09:21:15;103119.0;;;4.36;66.13
50652;BME280;66928;52.086;5.240;2023-02-28T09:22:52;103115.00000000001;;;4.47;64.81
50652;BME280;66928;52.086;5.240;2023-02-28T09:26:05;103113.00000000001;;;4.41;63.31
50652;BME280;66928;52.086;5.240;2023-02-28T09:27:42;103117.0;;;4.39;63.93
50652;BME280;66928;52.086;5.240;2023-02-28T09:29:18;103119.0;;;4.53;63.8
50652;BME280;66928;52.086;5.240;2023-02-28T09:30:54;103116.00000000001;;;4.46;62.4
50652;BME280;66928;52.086;5.240;2023-02-28T09:34:07;103117.0;;;4.54;62.91
50652;BME280;66928;52.086;5.240;2023-02-28T09:35:43;103114.00000000001;;;4.8;61.53
50652;BME280;66928;52.086;5.240;2023-02-28T09:37:20;103121.0;;;4.84;59.58
50652;BME280;66928;52.086;5.240;2023-02-28T09:40:35;103114.00000000001;;;4.79;58.66
50652;BME280;66928;52.086;5.240;2023-02-28T09:42:21;103107.0;;;4.84;58.2
50652;BME280;66928;52.086;5.240;2023-02-28T09:44:10;103114.00000000001;;;4.91;57.33
50652;BME280;66928;52.086;5.240;2023-02-28T09:45:52;103116.00000000001;;;5.05;56.01
50652;BME280;66928;52.086;5.240;2023-02-28T09:49:16;103120.0;;;5.21;56.89
50652;BME280;66928;52.086;5.240;2023-02-28T09:50:55;103120.0;;;5.37;55.89
50652;BME280;66928;52.086;5.240;2023-02-28T09:52:36;103116.00000000001;;;5.48;55.55
50652;BME280;66928;52.086;5.240;2023-02-28T09:54:16;103118.0;;;5.49;54.54
50652;BME280;66928;52.086;5.240;2023-02-28T09:57:38;103114.00000000001;;;5.4;53.36
50652;BME280;66928;52.086;5.240;2023-02-28T09:59:28;103117.0;;;5.25;53.57
50652;BME280;66928;52.086;5.240;2023-02-28T10:01:21;103114.00000000001;;;5.52;52.83
50652;BME280;66928;52.086;5.240;2023-02-28T10:03:22;103123.0;;;5.5;51.16
50652;BME280;66928;52.086;5.240;2023-02-28T10:05:05;103118.0;;;5.32;46.33
50652;BME280;66928;52.086;5.240;2023-02-28T10:06:46;103121.0;;;5.46;45.45
50652;BME280;66928;52.086;5.240;2023-02-28T10:10:15;103119.0;;;5.27;43.63
50652;BME280;66928;52.086;5.240;2023-02-28T10:12:00;103120.0;;;5.43;44.34
50652;BME280;66928;52.086;5.240;2023-02-28T10:13:48;103116.00000000001;;;5.39;44.19
50652;BME280;66928;52.086;5.240;2023-02-28T10:15:30;103118.0;;;5.35;42.53
50652;BME280;66928;52.086;5.240;2023-02-28T10:17:11;103111.99999999999;;;5.2;42.46
50652;BME280;66928;52.086;5.240;2023-02-28T10:20:37;103113.00000000001;;;5.24;42.52
50652;BME280;66928;52.086;5.240;2023-02-28T10:22:17;103117.0;;;5.31;41.83
50652;BME280;66928;52.086;5.240;2023-02-28T10:24:13;103111.99999999999;;;5.44;42.04
50652;BME280;66928;52.086;5.240;2023-02-28T10:25:57;103106.0;;;5.28;41.46
50652;BME280;66928;52.086;5.240;2023-02-28T10:27:35;103106.0;;;5.27;41.75
50652;BME280;66928;52.086;5.240;2023-02-28T10:30:50;103102.0;;;5.45;42.0
50652;BME280;66928;52.086;5.240;2023-02-28T10:32:29;103097.0;;;5.6;42.35
50652;BME280;66928;52.086;5.240;2023-02-28T10:34:07;103096.0;;;5.51;41.58
50652;BME280;66928;52.086;5.240;2023-02-28T10:35:48;103095.0;;;5.6;41.58
50652;BME280;66928;52.086;5.240;2023-02-28T10:39:34;103097.0;;;5.82;41.24
50652;BME280;66928;52.086;5.240;2023-02-28T10:41:13;103094.0;;;5.77;40.86
50652;BME280;66928;52.086;5.240;2023-02-28T10:42:57;103092.0;;;5.79;40.64
50652;BME280;66928;52.086;5.240;2023-02-28T10:44:34;103093.0;;;5.51;40.72
50652;BME280;66928;52.086;5.240;2023-02-28T10:46:13;103095.0;;;5.61;40.4
50652;BME280;66928;52.086;5.240;2023-02-28T10:49:30;103096.0;;;5.6;40.83
50652;BME280;66928;52.086;5.240;2023-02-28T10:51:08;103097.0;;;5.75;40.69
50652;BME280;66928;52.086;5.240;2023-02-28T10:52:46;103091.00000000001;;;5.66;39.82
50652;BME280;66928;52.086;5.240;2023-02-28T10:56:05;103089.00000000001;;;6.12;40.47
50652;BME280;66928;52.086;5.240;2023-02-28T10:57:49;103089.00000000001;;;6.22;40.18
50652;BME280;66928;52.086;5.240;2023-02-28T10:59:28;103084.99999999999;;;6.17;40.28
50652;BME280;66928;52.086;5.240;2023-02-28T11:01:12;103082.0;;;5.9;39.54
50652;BME280;66928;52.086;5.240;2023-02-28T11:04:36;103080.0;;;5.85;39.92
50652;BME280;66928;52.086;5.240;2023-02-28T11:06:16;103076.0;;;5.79;39.96
50652;BME280;66928;52.086;5.240;2023-02-28T11:07:55;103072.0;;;6.15;40.46
50652;BME280;66928;52.086;5.240;2023-02-28T11:09:36;103071.0;;;5.95;39.24
50652;BME280;66928;52.086;5.240;2023-02-28T11:12:54;103070.0;;;6.0;39.67
50652;BME280;66928;52.086;5.240;2023-02-28T11:14:33;103072.0;;;6.05;39.61
50652;BME280;66928;52.086;5.240;2023-02-28T11:16:31;103069.0;;;6.04;39.06
50652;BME280;66928;52.086;5.240;2023-02-28T11:18:21;103061.99999999999;;;5.85;39.56
50652;BME280;66928;52.086;5.240;2023-02-28T11:20:02;103066.00000000001;;;5.7;39.94
50652;BME280;66928;52.086;5.240;2023-02-28T11:23:25;103071.0;;;5.63;39.96
50652;BME280;66928;52.086;5.240;2023-02-28T11:25:08;103067.0;;;5.74;39.86
50652;BME280;66928;52.086;5.240;2023-02-28T11:26:47;103058.99999999999;;;5.79;39.47
50652;BME280;66928;52.086;5.240;2023-02-28T11:28:27;103066.00000000001;;;5.88;39.6
50652;BME280;66928;52.086;5.240;2023-02-28T11:30:23;103059.99999999999;;;6.02;38.82
50652;BME280;66928;52.086;5.240;2023-02-28T11:33:49;103052.0;;;6.09;39.04
50652;BME280;66928;52.086;5.240;2023-02-28T11:35:30;103056.0;;;6.03;38.58
50652;BME280;66928;52.086;5.240;2023-02-28T11:37:13;103057.0;;;6.23;37.92
50652;BME280;66928;52.086;5.240;2023-02-28T11:38:51;103056.0;;;6.26;39.1
50652;BME280;66928;52.086;5.240;2023-02-28T11:42:30;103051.0;;;6.0;38.14
50652;BME280;66928;52.086;5.240;2023-02-28T11:45:29;103046.0;;;5.92;38.39
50652;BME280;66928;52.086;5.240;2023-02-28T11:47:17;103042.0;;;6.15;38.28
50652;BME280;66928;52.086;5.240;2023-02-28T11:49:06;103038.00000000001;;;6.1;37.99
50652;BME280;66928;52.086;5.240;2023-02-28T11:52:45;103036.99999999999;;;5.95;38.71
50652;BME280;66928;52.086;5.240;2023-02-28T11:54:33;103039.00000000001;;;6.0;38.28
50652;BME280;66928;52.086;5.240;2023-02-28T11:56:31;103039.00000000001;;;6.16;38.46
50652;BME280;66928;52.086;5.240;2023-02-28T11:58:19;103036.99999999999;;;6.3;38.67
50652;BME280;66928;52.086;5.240;2023-02-28T12:00:36;103033.99999999999;;;6.42;38.24
50652;BME280;66928;52.086;5.240;2023-02-28T12:02:24;103030.0;;;6.53;38.11
50652;BME280;66928;52.086;5.240;2023-02-28T12:04:17;103033.99999999999;;;6.26;37.31
50652;BME280;66928;52.086;5.240;2023-02-28T12:06:02;103034.99999999999;;;6.18;37.6
50652;BME280;66928;52.086;5.240;2023-02-28T12:08:02;103040.00000000001;;;5.93;37.96
50652;BME280;66928;52.086;5.240;2023-02-28T12:11:47;103041.00000000001;;;5.81;37.85
50652;BME280;66928;52.086;5.240;2023-02-28T12:13:32;103038.00000000001;;;5.9;38.06
50652;BME280;66928;52.086;5.240;2023-02-28T12:15:27;103030.0;;;6.03;37.69
50652;BME280;66928;52.086;5.240;2023-02-28T12:18:32;103017.0;;;6.25;38.06
50652;BME280;66928;52.086;5.240;2023-02-28T12:20:34;103022.0;;;6.16;37.85
50652;BME280;66928;52.086;5.240;2023-02-28T12:24:17;103024.0;;;6.4;38.25
50652;BME280;66928;52.086;5.240;2023-02-28T12:26:33;103018.0;;;6.48;37.53
50652;BME280;66928;52.086;5.240;2023-02-28T12:28:14;103018.0;;;6.42;37.74
50652;BME280;66928;52.086;5.240;2023-02-28T12:29:55;103008.99999999999;;;6.66;37.42
50652;BME280;66928;52.086;5.240;2023-02-28T12:31:36;103011.99999999999;;;6.62;37.57
50652;BME280;66928;52.086;5.240;2023-02-28T12:33:17;103005.0;;;6.7;37.28
50652;BME280;66928;52.086;5.240;2023-02-28T12:35:01;103007.0;;;6.65;37.19
50652;BME280;66928;52.086;5.240;2023-02-28T12:38:22;103008.99999999999;;;6.61;36.65
50652;BME280;66928;52.086;5.240;2023-02-28T12:40:03;103007.0;;;6.6;36.6
50652;BME280;66928;52.086;5.240;2023-02-28T12:41:42;102998.0;;;6.68;37.08
50652;BME280;66928;52.086;5.240;2023-02-28T12:43:26;103002.0;;;6.71;36.93
50652;BME280;66928;52.086;5.240;2023-02-28T12:46:54;103002.0;;;6.55;36.12
50652;BME280;66928;52.086;5.240;2023-02-28T12:48:38;103005.0;;;6.41;36.83
50652;BME280;66928;52.086;5.240;2023-02-28T12:50:19;103003.0;;;6.45;37.07
50652;BME280;66928;52.086;5.240;2023-02-28T12:51:58;102999.0;;;6.29;37.03
50652;BME280;66928;52.086;5.240;2023-02-28T12:55:30;103008.99999999999;;;6.45;37.37
50652;BME280;66928;52.086;5.240;2023-02-28T12:57:18;103001.0;;;6.6;37.21
50652;BME280;66928;52.086;5.240;2023-02-28T12:59:04;103005.0;;;6.72;37.07
50652;BME280;66928;52.086;5.240;2023-02-28T13:01:01;102998.0;;;6.57;36.75
50652;BME280;66928;52.086;5.240;2023-02-28T13:03:49;102992.0;;;6.51;36.54
50652;BME280;66928;52.086;5.240;2023-02-28T13:06:39;102983.99999999999;;;6.79;36.83
50652;BME280;66928;52.086;5.240;2023-02-28T13:08:31;102983.99999999999;;;6.81;35.96
50652;BME280;66928;52.086;5.240;2023-02-28T13:10:39;102978.0;;;6.59;35.87
50652;BME280;66928;52.086;5.240;2023-02-28T13:14:00;102978.0;;;6.58;36.07
50652;BME280;66928;52.086;5.240;2023-02-28T13:15:37;102981.0;;;6.61;36.1
50652;BME280;66928;52.086;5.240;2023-02-28T13:17:18;102982.0;;;6.54;36.35
50652;BME280;66928;52.086;5.240;2023-02-28T13:22:41;102983.0;;;6.32;36.78
50652;BME280;66928;52.086;5.240;2023-02-28T13:24:50;102980.0;;;6.37;36.93
50652;BME280;66928;52.086;5.240;2023-02-28T13:27:35;102976.0;;;6.53;37.04
50652;BME280;66928;52.086;5.240;2023-02-28T13:29:28;102981.0;;;6.61;36.81
50652;BME280;66928;52.086;5.240;2023-02-28T13:31:07;102979.0;;;6.75;36.92
50652;BME280;66928;52.086;5.240;2023-02-28T13:32:43;102976.0;;;6.62;36.06
50652;BME280;66928;52.086;5.240;2023-02-28T13:34:19;102975.0;;;6.74;35.62
50652;BME280;66928;52.086;5.240;2023-02-28T13:36:28;102974.0;;;6.69;35.68
50652;BME280;66928;52.086;5.240;2023-02-28T13:38:17;102971.0;;;6.86;35.32
50652;BME280;66928;52.086;5.240;2023-02-28T13:40:33;102967.0;;;6.84;35.99
50652;BME280;66928;52.086;5.240;2023-02-28T13:42:33;102967.0;;;7.03;35.86
50652;BME280;66928;52.086;5.240;2023-02-28T13:44:24;102965.00000000001;;;7.11;35.61
50652;BME280;66928;52.086;5.240;2023-02-28T13:47:53;102958.99999999999;;;7.0;35.51
50652;BME280;66928;52.086;5.240;2023-02-28T13:49:30;102963.00000000001;;;7.16;35.64
50652;BME280;66928;52.086;5.240;2023-02-28T13:51:47;102955.0;;;7.33;35.69
50652;BME280;66928;52.086;5.240;2023-02-28T13:53:36;102950.0;;;7.34;35.29
50652;BME280;66928;52.086;5.240;2023-02-28T13:56:27;102953.0;;;7.47;36.28
50652;BME280;66928;52.086;5.240;2023-02-28T13:58:27;102959.99999999999;;;7.18;35.85
50652;BME280;66928;52.086;5.240;2023-02-28T14:00:28;102951.0;;;6.89;36.17
50652;BME280;66928;52.086;5.240;2023-02-28T14:02:30;102944.0;;;6.88;36.46
50652;BME280;66928;52.086;5.240;2023-02-28T14:04:42;102951.0;;;7.04;36.39
50652;BME280;66928;52.086;5.240;2023-02-28T14:06:32;102947.0;;;7.0;36.31
50652;BME280;66928;52.086;5.240;2023-02-28T14:08:13;102950.0;;;6.97;36.1
50652;BME280;66928;52.086;5.240;2023-02-28T14:09:57;102943.0;;;6.93;35.89
50652;BME280;66928;52.086;5.240;2023-02-28T14:11:38;102939.00000000001;;;6.88;35.56
50652;BME280;66928;52.086;5.240;2023-02-28T14:13:46;102938.00000000001;;;6.94;35.92
50652;BME280;66928;52.086;5.240;2023-02-28T14:15:39;102939.00000000001;;;6.94;35.76
50652;BME280;66928;52.086;5.240;2023-02-28T14:19:44;102933.99999999999;;;6.86;35.82
50652;BME280;66928;52.086;5.240;2023-02-28T14:23:07;102940.00000000001;;;6.82;36.11
50652;BME280;66928;52.086;5.240;2023-02-28T14:25:06;102947.0;;;6.9;35.04
50652;BME280;66928;52.086;5.240;2023-02-28T14:26:57;102942.0;;;6.73;34.94
50652;BME280;66928;52.086;5.240;2023-02-28T14:29:01;102932.0;;;6.77;35.03
50652;BME280;66928;52.086;5.240;2023-02-28T14:32:22;102928.0;;;6.75;35.1
50652;BME280;66928;52.086;5.240;2023-02-28T14:36:06;102942.0;;;6.75;34.79
50652;BME280;66928;52.086;5.240;2023-02-28T14:37:43;102939.00000000001;;;6.88;34.76
50652;BME280;66928;52.086;5.240;2023-02-28T14:39:22;102934.99999999999;;;6.88;34.61
50652;BME280;66928;52.086;5.240;2023-02-28T14:41:05;102932.0;;;7.01;34.68
50652;BME280;66928;52.086;5.240;2023-02-28T14:42:55;102925.0;;;7.05;34.83
50652;BME280;66928;52.086;5.240;2023-02-28T14:46:13;102924.0;;;7.05;34.93
50652;BME280;66928;52.086;5.240;2023-02-28T14:47:51;102922.0;;;7.01;35.1
50652;BME280;66928;52.086;5.240;2023-02-28T14:49:29;102932.0;;;6.95;34.97
50652;BME280;66928;52.086;5.240;2023-02-28T14:51:06;102924.0;;;6.87;35.44
50652;BME280;66928;52.086;5.240;2023-02-28T14:54:21;102922.0;;;7.08;35.42
50652;BME280;66928;52.086;5.240;2023-02-28T14:55:59;102918.0;;;7.23;35.42
50652;BME280;66928;52.086;5.240;2023-02-28T14:57:40;102917.0;;;7.4;35.51
50652;BME280;66928;52.086;5.240;2023-02-28T14:59:25;102915.00000000001;;;7.31;35.07
50652;BME280;66928;52.086;5.240;2023-02-28T15:02:41;102919.0;;;7.36;34.86
50652;BME280;66928;52.086;5.240;2023-02-28T15:04:22;102918.0;;;7.28;34.92
50652;BME280;66928;52.086;5.240;2023-02-28T15:06:03;102922.0;;;7.21;34.79
50652;BME280;66928;52.086;5.240;2023-02-28T15:07:40;102931.0;;;7.37;35.29
50652;BME280;66928;52.086;5.240;2023-02-28T15:10:56;102922.0;;;7.2;35.62
50652;BME280;66928;52.086;5.240;2023-02-28T15:12:35;102922.0;;;7.2;35.57
50652;BME280;66928;52.086;5.240;2023-02-28T15:14:17;102925.0;;;7.18;35.61
50652;BME280;66928;52.086;5.240;2023-02-28T15:17:35;102926.0;;;7.16;35.58
50652;BME280;66928;52.086;5.240;2023-02-28T15:19:14;102919.0;;;7.11;35.92
50652;BME280;66928;52.086;5.240;2023-02-28T15:20:56;102921.0;;;7.24;35.81
50652;BME280;66928;52.086;5.240;2023-02-28T15:22:37;102924.0;;;7.26;35.46
50652;BME280;66928;52.086;5.240;2023-02-28T15:25:57;102924.0;;;7.19;35.85
50652;BME280;66928;52.086;5.240;2023-02-28T15:27:37;102924.0;;;7.3;35.76
50652;BME280;66928;52.086;5.240;2023-02-28T15:29:20;102920.0;;;7.48;35.94
50652;BME280;66928;52.086;5.240;2023-02-28T15:31:00;102926.0;;;7.5;35.35
50652;BME280;66928;52.086;5.240;2023-02-28T15:34:19;102929.0;;;7.35;35.46
50652;BME280;66928;52.086;5.240;2023-02-28T15:36:07;102924.0;;;7.34;35.39
50652;BME280;66928;52.086;5.240;2023-02-28T15:37:53;102926.0;;;7.26;34.99
50652;BME280;66928;52.086;5.240;2023-02-28T15:39:31;102925.0;;;7.2;35.58
50652;BME280;66928;52.086;5.240;2023-02-28T15:41:24;102930.0;;;7.3;35.43
50652;BME280;66928;52.086;5.240;2023-02-28T15:44:42;102932.0;;;7.26;35.26
50652;BME280;66928;52.086;5.240;2023-02-28T15:46:19;102931.0;;;7.25;34.5
50652;BME280;66928;52.086;5.240;2023-02-28T15:47:55;102927.0;;;7.39;34.72
50652;BME280;66928;52.086;5.240;2023-02-28T15:49:38;102924.0;;;7.37;35.33
50652;BME280;66928;52.086;5.240;2023-02-28T15:53:00;102917.0;;;7.31;35.46
50652;BME280;66928;52.086;5.240;2023-02-28T15:54:37;102920.0;;;7.26;35.62
50652;BME280;66928;52.086;5.240;2023-02-28T15:56:23;102917.0;;;7.2;35.32
50652;BME280;66928;52.086;5.240;2023-02-28T15:58:01;102915.00000000001;;;7.26;35.18
50652;BME280;66928;52.086;5.240;2023-02-28T16:01:21;102914.00000000001;;;7.24;34.9
50652;BME280;66928;52.086;5.240;2023-02-28T16:02:59;102916.00000000001;;;7.27;36.42
50652;BME280;66928;52.086;5.240;2023-02-28T16:04:36;102917.0;;;7.29;35.51
50652;BME280;66928;52.086;5.240;2023-02-28T16:06:26;102913.00000000001;;;7.29;35.75
50652;BME280;66928;52.086;5.240;2023-02-28T16:08:38;102913.00000000001;;;7.19;35.89
50652;BME280;66928;52.086;5.240;2023-02-28T16:11:52;102914.00000000001;;;7.4;35.68
50652;BME280;66928;52.086;5.240;2023-02-28T16:13:30;102913.00000000001;;;7.27;35.64
50652;BME280;66928;52.086;5.240;2023-02-28T16:15:09;102917.0;;;7.19;35.64
50652;BME280;66928;52.086;5.240;2023-02-28T16:16:55;102917.0;;;7.37;35.56
50652;BME280;66928;52.086;5.240;2023-02-28T16:20:15;102915.00000000001;;;7.42;35.64
50652;BME280;66928;52.086;5.240;2023-02-28T16:21:52;102918.0;;;7.35;35.37
50652;BME280;66928;52.086;5.240;2023-02-28T16:23:28;102920.0;;;7.19;35.26
50652;BME280;66928;52.086;5.240;2023-02-28T16:25:05;102924.0;;;7.22;35.56
50652;BME280;66928;52.086;5.240;2023-02-28T16:28:25;102920.0;;;7.35;35.44
50652;BME280;66928;52.086;5.240;2023-02-28T16:30:06;102921.0;;;7.22;35.67
50652;BME280;66928;52.086;5.240;2023-02-28T16:31:46;102919.0;;;7.13;36.18
50652;BME280;66928;52.086;5.240;2023-02-28T16:35:00;102921.0;;;7.06;36.04
50652;BME280;66928;52.086;5.240;2023-02-28T16:36:35;102924.0;;;6.96;36.28
50652;BME280;66928;52.086;5.240;2023-02-28T16:38:12;102927.0;;;7.16;36.44
50652;BME280;66928;52.086;5.240;2023-02-28T16:39:48;102933.0;;;6.98;36.49
50652;BME280;66928;52.086;5.240;2023-02-28T16:43:07;102931.0;;;7.18;36.22
50652;BME280;66928;52.086;5.240;2023-02-28T16:44:46;102925.0;;;7.05;36.35
50652;BME280;66928;52.086;5.240;2023-02-28T16:46:25;102929.0;;;7.12;36.39
50652;BME280;66928;52.086;5.240;2023-02-28T16:48:03;102934.99999999999;;;6.92;36.46
50652;BME280;66928;52.086;5.240;2023-02-28T16:51:17;102931.0;;;7.03;36.71
50652;BME280;66928;52.086;5.240;2023-02-28T16:52:54;102939.00000000001;;;6.88;37.07
50652;BME280;66928;52.086;5.240;2023-02-28T16:54:31;102934.99999999999;;;6.91;37.15
50652;BME280;66928;52.086;5.240;2023-02-28T16:57:53;102942.0;;;6.82;37.47
50652;BME280;66928;52.086;5.240;2023-02-28T16:59:31;102947.0;;;6.86;37.44
50652;BME280;66928;52.086;5.240;2023-02-28T17:01:08;102947.0;;;7.02;37.5
50652;BME280;66928;52.086;5.240;2023-02-28T17:02:44;102947.0;;;7.03;37.67
50652;BME280;66928;52.086;5.240;2023-02-28T17:05:56;102953.0;;;6.9;37.49
50652;BME280;66928;52.086;5.240;2023-02-28T17:07:32;102955.0;;;6.75;37.69
50652;BME280;66928;52.086;5.240;2023-02-28T17:09:14;102955.0;;;6.75;38.06
50652;BME280;66928;52.086;5.240;2023-02-28T17:12:27;102959.99999999999;;;6.78;38.14
50652;BME280;66928;52.086;5.240;2023-02-28T17:14:04;102950.0;;;6.71;38.39
50652;BME280;66928;52.086;5.240;2023-02-28T17:15:40;102954.0;;;6.48;38.46
50652;BME280;66928;52.086;5.240;2023-02-28T17:19:01;102954.0;;;6.56;38.69
50652;BME280;66928;52.086;5.240;2023-02-28T17:20:37;102961.99999999999;;;6.47;38.62
50652;BME280;66928;52.086;5.240;2023-02-28T17:22:13;102961.99999999999;;;6.44;38.78
50652;BME280;66928;52.086;5.240;2023-02-28T17:23:50;102967.0;;;6.23;39.35
50652;BME280;66928;52.086;5.240;2023-02-28T17:27:03;102970.0;;;6.28;39.39